Terminal Aerodrome Forecast
Issued by NWS

Current Version | Previous Version | Text Only | Print | Product List | Glossary On
Versions: 1 2 3 4 5 6 7 8 9 10 11 12 13 14 15 16 17 18
000 FTUS41 KBOX 052320 TAFBAF TAF KBAF 052320Z 0600/0624 02008KT P6SM OVC025 FM060700 01005KT P6SM BKN035 FM061500 07008KT P6SM VCSH OVC045 FM062100 09004KT P6SM -SHRA OVC025=

USA.gov is the U.S. government's official web portal to all federal, state and local government web resources and services.